Time;durP1;ratioP1;P1;durP2;ratioP2;P2;SDS_P1;SDS_P2;PMS_P1;PMS_P2;Temp;Humidity;BMP_temperature;BMP_pressure;BME280_temperature;BME280_humidity;BME280_pressure;Samples;Min_cycle;Max_cycle;Signal;HPM_P1;HPM_P2
2023/10/22 00:01:15;;;;;;;1.83;1.40;;;12.80;99.90;;;;;;5051987;28;20443;-71
2023/10/22 00:03:41;;;;;;;1.40;1.20;;;12.80;99.90;;;;;;5070467;28;20565;-71
2023/10/22 00:06:06;;;;;;;1.90;1.20;;;12.80;99.90;;;;;;5070341;28;20178;-71
2023/10/22 00:08:32;;;;;;;2.40;1.57;;;12.80;99.90;;;;;;5070314;28;20180;-71
2023/10/22 00:10:57;;;;;;;4.00;1.53;;;12.90;99.90;;;;;;5070065;28;20187;-70
2023/10/22 00:13:23;;;;;;;2.60;1.30;;;12.80;99.90;;;;;;5068658;28;20191;-71
2023/10/22 00:15:49;;;;;;;2.10;1.50;;;12.80;99.90;;;;;;5069915;28;20175;-71
2023/10/22 00:18:14;;;;;;;1.40;1.00;;;12.80;99.90;;;;;;5069702;28;20297;-71
2023/10/22 00:20:41;;;;;;;2.53;1.13;;;12.70;99.90;;;;;;5069902;28;20177;-71
2023/10/22 00:23:07;;;;;;;3.57;1.60;;;12.80;99.90;;;;;;5069712;28;20201;-71
2023/10/22 00:25:36;;;;;;;2.50;1.33;;;12.70;99.90;;;;;;5069745;28;20416;-71
2023/10/22 00:28:02;;;;;;;2.30;1.20;;;12.70;99.90;;;;;;5069715;28;20448;-71
2023/10/22 00:30:28;;;;;;;3.63;1.33;;;12.70;99.90;;;;;;5068105;28;20838;-71
2023/10/22 00:32:53;;;;;;;1.43;0.90;;;12.70;99.90;;;;;;5069588;28;20429;-71
2023/10/22 00:35:19;;;;;;;1.77;1.00;;;12.80;99.90;;;;;;5069581;28;20505;-71
2023/10/22 00:37:44;;;;;;;1.37;1.20;;;12.80;99.90;;;;;;5068090;28;20207;-71
2023/10/22 00:40:10;;;;;;;8.50;1.63;;;12.70;99.90;;;;;;5069459;28;20180;-71
2023/10/22 00:42:36;;;;;;;1.40;1.00;;;12.70;99.90;;;;;;5069337;28;20601;-71
2023/10/22 00:45:02;;;;;;;2.70;0.80;;;12.70;99.90;;;;;;5067996;28;20918;-72
2023/10/22 00:47:29;;;;;;;2.77;0.97;;;12.60;99.90;;;;;;5067779;28;20209;-71
2023/10/22 00:49:54;;;;;;;2.20;1.03;;;12.60;99.90;;;;;;5069465;28;20427;-71
2023/10/22 00:52:20;;;;;;;3.80;1.40;;;12.70;99.90;;;;;;5067855;28;20421;-72
2023/10/22 00:54:47;;;;;;;2.97;1.00;;;12.50;99.90;;;;;;5067697;28;20206;-71
2023/10/22 00:57:13;;;;;;;2.50;1.20;;;12.50;99.90;;;;;;5069060;28;20829;-71
2023/10/22 00:59:39;;;;;;;1.30;0.93;;;12.50;99.90;;;;;;5067692;28;20409;-71
2023/10/22 01:02:04;;;;;;;4.30;1.00;;;12.50;99.90;;;;;;5067273;28;20868;-71
2023/10/22 01:04:31;;;;;;;5.13;1.63;;;12.50;99.90;;;;;;5067453;28;20839;-71
2023/10/22 01:06:57;;;;;;;6.40;1.50;;;12.40;99.90;;;;;;5068862;28;20220;-71
2023/10/22 01:09:22;;;;;;;2.13;1.30;;;12.40;99.90;;;;;;5068366;28;20927;-71
2023/10/22 01:12:02;;;;;;;2.07;1.20;;;12.40;99.90;;;;;;5068667;28;20268;-71
2023/10/22 01:14:27;;;;;;;2.23;1.07;;;12.40;99.90;;;;;;5068763;28;20183;-71
2023/10/22 01:16:53;;;;;;;3.17;1.30;;;12.40;99.90;;;;;;5067101;28;20525;-71
2023/10/22 01:19:19;;;;;;;5.80;1.03;;;12.40;99.90;;;;;;5069168;28;20197;-71
2023/10/22 01:21:44;;;;;;;1.53;1.23;;;12.40;99.90;;;;;;5069166;28;20260;-71
2023/10/22 01:24:10;;;;;;;3.53;1.20;;;12.40;99.90;;;;;;5067241;28;20209;-71
2023/10/22 01:26:42;;;;;;;2.07;1.20;;;12.40;99.90;;;;;;5068693;28;20205;-71
2023/10/22 01:29:08;;;;;;;0.97;0.73;;;12.30;99.90;;;;;;5068641;28;20179;-71
2023/10/22 01:31:34;;;;;;;1.10;1.00;;;12.30;99.90;;;;;;5068521;28;20938;-71
2023/10/22 01:33:59;;;;;;;4.33;1.53;;;12.20;99.90;;;;;;5068560;28;20191;-72
2023/10/22 01:36:25;;;;;;;3.30;1.30;;;12.00;99.90;;;;;;5068527;28;20245;-71
2023/10/22 01:38:50;;;;;;;2.80;1.37;;;11.90;99.90;;;;;;5068604;28;20186;-71
2023/10/22 01:41:16;;;;;;;3.30;1.33;;;11.90;99.90;;;;;;5066992;28;20195;-71
2023/10/22 01:43:41;;;;;;;1.63;1.13;;;12.00;99.90;;;;;;5068449;28;20216;-71
2023/10/22 01:46:07;;;;;;;3.77;1.40;;;11.90;99.90;;;;;;5068830;28;20594;-71
2023/10/22 01:48:33;;;;;;;1.97;0.97;;;11.90;99.90;;;;;;5067054;28;20190;-71
2023/10/22 01:50:58;;;;;;;2.80;1.43;;;11.80;99.90;;;;;;5067210;28;20190;-71
2023/10/22 01:53:24;;;;;;;3.80;1.60;;;11.80;99.90;;;;;;5068671;28;20270;-71
2023/10/22 01:55:50;;;;;;;1.20;1.10;;;11.80;99.90;;;;;;5069002;28;20198;-70
2023/10/22 01:58:16;;;;;;;3.10;1.20;;;11.70;99.90;;;;;;5069270;28;20440;-71
2023/10/22 02:00:42;;;;;;;2.90;1.30;;;11.60;99.90;;;;;;5069091;28;20221;-71
2023/10/22 02:03:07;;;;;;;1.90;1.30;;;11.50;99.90;;;;;;5068779;28;20218;-71
2023/10/22 02:05:33;;;;;;;4.87;1.50;;;11.50;99.90;;;;;;5068532;28;20189;-71
2023/10/22 02:08:08;;;;;;;2.07;1.67;;;11.40;99.90;;;;;;5068310;28;20626;-71
2023/10/22 02:10:34;;;;;;;1.90;1.57;;;11.40;99.90;;;;;;5068179;28;20535;-71
2023/10/22 02:13:00;;;;;;;2.80;1.60;;;11.50;99.90;;;;;;5068226;28;20502;-73
2023/10/22 02:15:26;;;;;;;1.80;1.70;;;11.50;99.90;;;;;;5068134;28;20456;-71
2023/10/22 02:17:52;;;;;;;2.97;1.70;;;11.60;99.90;;;;;;5050094;28;20210;-71
2023/10/22 02:20:19;;;;;;;1.53;1.40;;;11.60;99.90;;;;;;5068107;28;20483;-71
2023/10/22 02:22:44;;;;;;;3.47;1.73;;;11.60;99.90;;;;;;5071609;28;20427;-71
2023/10/22 02:25:10;;;;;;;3.17;1.70;;;11.60;99.90;;;;;;5070855;28;20416;-71
2023/10/22 02:27:35;;;;;;;2.50;1.70;;;11.50;99.90;;;;;;5072138;28;20302;-71
2023/10/22 02:30:02;;;;;;;1.47;1.37;;;11.50;99.90;;;;;;5072042;28;20716;-71
2023/10/22 02:32:27;;;;;;;4.10;1.40;;;11.60;99.90;;;;;;5072240;28;20260;-71
2023/10/22 02:34:53;;;;;;;2.43;1.50;;;11.60;99.90;;;;;;5071859;28;20497;-71
2023/10/22 02:37:19;;;;;;;1.83;1.40;;;11.60;99.90;;;;;;5071810;28;20205;-71
2023/10/22 02:39:45;;;;;;;4.63;1.60;;;11.60;99.90;;;;;;5071992;28;20179;-71
2023/10/22 02:42:11;;;;;;;3.03;1.43;;;11.60;99.90;;;;;;5071949;28;20505;-71
2023/10/22 02:44:36;;;;;;;1.87;1.47;;;11.50;99.90;;;;;;5070439;28;20656;-71
2023/10/22 02:47:02;;;;;;;1.73;1.57;;;11.40;99.90;;;;;;5072041;28;20210;-71
2023/10/22 02:49:29;;;;;;;1.50;1.40;;;11.30;99.90;;;;;;5071959;28;20606;-71
2023/10/22 02:51:55;;;;;;;8.67;2.00;;;11.30;99.90;;;;;;5070267;28;20415;-71
2023/10/22 02:54:20;;;;;;;8.23;1.93;;;11.30;99.90;;;;;;5071784;28;20417;-71
2023/10/22 02:56:46;;;;;;;5.00;1.67;;;11.20;99.90;;;;;;5071591;28;20211;-71
2023/10/22 02:59:12;;;;;;;1.77;1.67;;;11.10;99.90;;;;;;5071554;28;20262;-71
2023/10/22 03:01:38;;;;;;;2.90;1.53;;;11.00;99.90;;;;;;5071528;28;20440;-71
2023/10/22 03:04:04;;;;;;;2.53;1.90;;;11.00;99.90;;;;;;5071482;28;20224;-71
2023/10/22 03:06:29;;;;;;;2.67;1.70;;;10.90;99.90;;;;;;5071404;28;20731;-71
2023/10/22 03:08:55;;;;;;;7.93;2.77;;;11.00;99.90;;;;;;5071505;28;20457;-71
2023/10/22 03:11:21;;;;;;;3.00;2.13;;;11.00;99.90;;;;;;5069882;28;20190;-71
2023/10/22 03:13:48;;;;;;;3.07;2.60;;;11.10;99.90;;;;;;5071258;28;20186;-71
2023/10/22 03:16:17;;;;;;;3.70;2.63;;;11.10;99.90;;;;;;5071289;28;20190;-72
2023/10/22 03:18:44;;;;;;;4.40;2.50;;;11.20;99.90;;;;;;5071563;28;20417;-71
2023/10/22 03:21:20;;;;;;;5.17;1.77;;;11.30;99.90;;;;;;5069960;28;20430;-71
2023/10/22 03:23:47;;;;;;;2.40;2.00;;;11.30;99.90;;;;;;5071115;28;20989;-71
2023/10/22 03:26:16;;;;;;;5.10;1.93;;;11.40;99.90;;;;;;5071224;28;20412;-71
2023/10/22 03:28:43;;;;;;;3.00;1.70;;;11.40;99.90;;;;;;5071422;28;20415;-71
2023/10/22 03:31:09;;;;;;;3.90;2.20;;;11.40;99.90;;;;;;5071436;28;20403;-71
2023/10/22 03:33:34;;;;;;;3.07;1.80;;;11.40;99.90;;;;;;5070811;28;20419;-71
2023/10/22 03:36:01;;;;;;;3.27;2.17;;;11.30;99.90;;;;;;5070322;28;20189;-72
2023/10/22 03:38:27;;;;;;;4.87;3.10;;;11.50;99.90;;;;;;5071690;28;20664;-71
2023/10/22 03:41:01;;;;;;;4.50;2.47;;;11.40;99.90;;;;;;5070265;28;20475;-71
2023/10/22 03:43:28;;;;;;;5.67;2.00;;;11.40;99.90;;;;;;5070594;28;20478;-71
2023/10/22 03:45:57;;;;;;;2.60;1.50;;;11.50;99.90;;;;;;5070245;28;20447;-71
2023/10/22 03:48:24;;;;;;;1.50;1.30;;;11.50;99.90;;;;;;5070614;28;20417;-71
2023/10/22 03:50:50;;;;;;;1.67;1.33;;;11.60;99.90;;;;;;5069113;28;20501;-71
2023/10/22 03:53:15;;;;;;;3.03;1.33;;;11.60;99.90;;;;;;5068882;28;20898;-71
2023/10/22 03:55:41;;;;;;;2.17;1.07;;;11.70;99.90;;;;;;5070362;28;20176;-71
2023/10/22 03:58:07;;;;;;;5.30;1.50;;;11.70;99.90;;;;;;5070510;28;20214;-71
2023/10/22 04:00:33;;;;;;;1.83;1.00;;;11.70;99.90;;;;;;5070184;28;20285;-71
2023/10/22 04:02:59;;;;;;;1.20;0.90;;;11.70;99.90;;;;;;5070135;28;20228;-71
2023/10/22 04:05:25;;;;;;;1.57;0.87;;;11.80;99.90;;;;;;5070203;28;20413;-71
2023/10/22 04:07:50;;;;;;;2.77;1.23;;;11.80;99.90;;;;;;5068687;28;20849;-71
2023/10/22 04:10:16;;;;;;;2.87;1.10;;;11.60;99.90;;;;;;5070141;28;20224;-71
2023/10/22 04:12:42;;;;;;;8.70;2.17;;;11.70;99.90;;;;;;5068893;28;20237;-71
2023/10/22 04:15:08;;;;;;;3.30;1.03;;;11.70;99.90;;;;;;5051620;28;20731;-71
2023/10/22 04:17:34;;;;;;;4.20;1.17;;;11.70;99.90;;;;;;5068496;28;20439;-71
2023/10/22 04:20:00;;;;;;;2.33;0.90;;;11.70;99.90;;;;;;5069919;28;20414;-71
2023/10/22 04:22:26;;;;;;;3.90;1.40;;;11.80;99.90;;;;;;5068371;28;20229;-71
2023/10/22 04:24:52;;;;;;;3.30;0.83;;;11.80;99.90;;;;;;5068161;28;20221;-71
2023/10/22 04:27:18;;;;;;;2.80;0.80;;;11.70;99.90;;;;;;5068075;28;20544;-71
2023/10/22 04:29:46;;;;;;;2.10;1.30;;;11.70;99.90;;;;;;5051639;28;20431;-71
2023/10/22 04:32:16;;;;;;;5.23;1.77;;;11.70;99.90;;;;;;5068334;28;20241;-71
2023/10/22 04:34:42;;;;;;;3.33;0.83;;;11.60;99.90;;;;;;5069941;28;20478;-71
2023/10/22 04:37:09;;;;;;;4.13;1.00;;;11.60;99.90;;;;;;5069824;28;20441;-71
2023/10/22 04:39:36;;;;;;;1.30;1.00;;;11.60;99.90;;;;;;5069816;28;20457;-71
2023/10/22 04:42:01;;;;;;;3.00;1.00;;;11.60;99.90;;;;;;5070079;28;20782;-71
2023/10/22 04:44:27;;;;;;;2.90;0.90;;;11.60;99.90;;;;;;5068606;28;20487;-71
2023/10/22 04:46:52;;;;;;;1.53;1.20;;;11.60;99.90;;;;;;5067928;28;20217;-71
2023/10/22 04:49:18;;;;;;;2.53;0.80;;;11.60;99.90;;;;;;5069572;28;20657;-72
2023/10/22 04:51:44;;;;;;;2.63;0.90;;;11.60;99.90;;;;;;5069544;28;20557;-72
2023/10/22 04:54:10;;;;;;;3.53;0.87;;;11.70;99.90;;;;;;5069518;28;20197;-71
2023/10/22 04:56:36;;;;;;;2.93;0.90;;;11.70;99.90;;;;;;5067989;28;20207;-71
2023/10/22 04:59:02;;;;;;;2.80;0.70;;;11.70;99.90;;;;;;5069353;28;20431;-71
2023/10/22 05:01:28;;;;;;;2.00;0.70;;;11.50;99.90;;;;;;5069125;28;20208;-71
2023/10/22 05:03:53;;;;;;;2.80;1.10;;;11.60;99.90;;;;;;5067836;28;20471;-71
2023/10/22 05:06:19;;;;;;;3.70;0.90;;;11.60;99.90;;;;;;5067784;28;20435;-71
2023/10/22 05:08:45;;;;;;;1.63;1.40;;;11.70;99.90;;;;;;5067709;28;20182;-71
2023/10/22 05:11:17;;;;;;;2.30;1.00;;;11.50;99.90;;;;;;5067762;28;20385;-71
2023/10/22 05:13:46;;;;;;;2.60;0.60;;;11.40;99.90;;;;;;5068967;28;20224;-71
2023/10/22 05:16:12;;;;;;;1.80;1.30;;;11.40;99.90;;;;;;5067538;28;20428;-72
2023/10/22 05:18:38;;;;;;;3.40;1.40;;;11.40;99.90;;;;;;5068978;28;20466;-72
2023/10/22 05:21:05;;;;;;;1.37;0.80;;;11.40;99.90;;;;;;5068874;28;20439;-72
2023/10/22 05:23:32;;;;;;;1.30;0.70;;;11.30;99.90;;;;;;5067483;28;20557;-72
2023/10/22 05:26:07;;;;;;;3.93;1.00;;;11.30;99.90;;;;;;5068764;28;20469;-72
2023/10/22 05:28:33;;;;;;;4.40;0.70;;;11.40;99.90;;;;;;5067397;28;20811;-71
2023/10/22 05:30:59;;;;;;;4.70;0.77;;;11.40;99.90;;;;;;5068833;28;20422;-71
2023/10/22 05:33:25;;;;;;;2.13;1.30;;;11.20;99.90;;;;;;5068824;28;20415;-71
2023/10/22 05:35:50;;;;;;;3.13;0.70;;;11.20;99.90;;;;;;5068741;28;20179;-71
2023/10/22 05:38:16;;;;;;;1.77;0.73;;;11.30;99.90;;;;;;5068457;28;20204;-71
2023/10/22 05:40:41;;;;;;;4.77;1.13;;;11.30;99.90;;;;;;5066784;28;20186;-71
2023/10/22 05:43:07;;;;;;;1.77;0.73;;;11.20;99.90;;;;;;5068207;28;20223;-72
2023/10/22 05:45:33;;;;;;;7.80;0.80;;;11.10;99.90;;;;;;5066972;28;20175;-72
2023/10/22 05:47:59;;;;;;;1.53;0.70;;;11.10;99.90;;;;;;5068582;28;20626;-72
2023/10/22 05:50:25;;;;;;;2.97;0.70;;;11.00;99.90;;;;;;5068268;28;20189;-71
2023/10/22 05:52:51;;;;;;;3.67;0.73;;;11.10;99.90;;;;;;5066703;28;20426;-72
2023/10/22 05:55:17;;;;;;;3.03;1.10;;;11.00;99.90;;;;;;5068258;28;20448;-72
2023/10/22 05:57:44;;;;;;;1.20;0.73;;;11.10;99.90;;;;;;5068016;28;20585;-71
2023/10/22 06:00:11;;;;;;;5.13;1.37;;;11.20;99.90;;;;;;5066841;28;20423;-71
2023/10/22 06:02:38;;;;;;;1.73;0.80;;;11.20;99.90;;;;;;5068114;28;20946;-71
2023/10/22 06:05:04;;;;;;;5.83;1.30;;;11.30;99.90;;;;;;5066618;28;20429;-71
2023/10/22 06:07:30;;;;;;;1.40;0.70;;;11.30;99.90;;;;;;5068170;28;20961;-70
2023/10/22 06:09:55;;;;;;;4.83;1.00;;;11.30;99.90;;;;;;5068305;28;20422;-70
2023/10/22 06:12:21;;;;;;;3.67;1.00;;;11.30;99.90;;;;;;5068736;28;20540;-71
2023/10/22 06:14:47;;;;;;;2.13;1.00;;;11.30;99.90;;;;;;5069316;28;20183;-71
2023/10/22 06:17:12;;;;;;;5.70;0.93;;;11.20;99.90;;;;;;5069042;28;20221;-70
2023/10/22 06:19:38;;;;;;;3.07;0.90;;;11.20;99.90;;;;;;5068960;28;20656;-70
2023/10/22 06:22:04;;;;;;;4.00;1.10;;;11.20;99.90;;;;;;5069019;28;20535;-70
2023/10/22 06:24:29;;;;;;;1.30;0.83;;;11.00;99.90;;;;;;5068965;28;20727;-71
2023/10/22 06:26:55;;;;;;;4.20;0.93;;;10.90;99.90;;;;;;5067231;28;20216;-71
2023/10/22 06:29:21;;;;;;;6.33;1.43;;;10.90;99.90;;;;;;5068675;28;20179;-71
2023/10/22 06:31:46;;;;;;;3.13;0.80;;;10.90;99.90;;;;;;5068959;28;20177;-71
2023/10/22 06:34:12;;;;;;;2.07;0.73;;;10.90;99.90;;;;;;5068641;28;20203;-71
2023/10/22 06:36:37;;;;;;;2.60;0.80;;;10.90;99.90;;;;;;5067025;28;20213;-71
2023/10/22 06:39:03;;;;;;;2.43;0.93;;;11.00;99.90;;;;;;5068556;28;20185;-71
2023/10/22 06:41:29;;;;;;;2.57;1.00;;;10.90;99.90;;;;;;5068210;28;20222;-70
2023/10/22 06:43:54;;;;;;;3.03;0.93;;;10.90;99.90;;;;;;5068097;28;20584;-71
2023/10/22 06:46:20;;;;;;;3.33;0.90;;;10.90;99.90;;;;;;5068026;28;20206;-70
2023/10/22 06:48:47;;;;;;;6.13;1.50;;;11.00;99.90;;;;;;5066681;28;20184;-70
2023/10/22 06:51:15;;;;;;;3.73;1.20;;;11.10;99.90;;;;;;5066677;28;20701;-71
2023/10/22 06:53:42;;;;;;;5.20;1.17;;;11.10;99.90;;;;;;5067954;28;20426;-71
2023/10/22 06:56:08;;;;;;;1.40;0.80;;;11.00;99.90;;;;;;5066422;28;21140;-71
2023/10/22 06:58:35;;;;;;;5.30;0.67;;;11.10;99.90;;;;;;5067887;28;20473;-71
2023/10/22 07:01:12;;;;;;;6.67;1.10;;;11.20;99.90;;;;;;5067623;28;20514;-70
2023/10/22 07:03:40;;;;;;;3.07;0.63;;;11.30;99.90;;;;;;5066225;28;20468;-70
2023/10/22 07:06:06;;;;;;;2.37;1.13;;;11.50;99.90;;;;;;5067716;28;20756;-70
2023/10/22 07:08:32;;;;;;;2.23;0.83;;;11.50;99.90;;;;;;5068010;28;20477;-70
2023/10/22 07:10:58;;;;;;;2.00;0.93;;;11.60;99.90;;;;;;5071614;28;20236;-71
2023/10/22 07:13:24;;;;;;;2.00;0.70;;;11.50;99.90;;;;;;5071573;28;20892;-71
2023/10/22 07:15:51;;;;;;;2.13;0.90;;;11.40;99.90;;;;;;5070211;28;20218;-70
2023/10/22 07:18:17;;;;;;;5.50;1.03;;;11.50;99.90;;;;;;5069622;28;20804;-71
2023/10/22 07:20:42;;;;;;;1.53;0.70;;;11.60;99.90;;;;;;5071247;28;20417;-71
2023/10/22 07:23:08;;;;;;;4.20;1.20;;;11.70;99.90;;;;;;5069845;28;20209;-71
2023/10/22 07:25:34;;;;;;;1.90;0.73;;;11.70;99.90;;;;;;5070000;28;20206;-71
2023/10/22 07:28:00;;;;;;;2.93;0.87;;;11.80;99.90;;;;;;5070425;28;20199;-71
2023/10/22 07:30:25;;;;;;;5.40;1.03;;;11.80;99.90;;;;;;5069873;28;20190;-71
2023/10/22 07:32:52;;;;;;;2.93;0.73;;;11.90;99.90;;;;;;5069748;28;20493;-71
2023/10/22 07:35:18;;;;;;;5.13;1.13;;;11.90;99.90;;;;;;5069683;28;20592;-71
2023/10/22 07:37:44;;;;;;;6.20;1.07;;;12.00;99.90;;;;;;5069672;28;20434;-71
2023/10/22 07:40:13;;;;;;;8.50;1.00;;;12.00;99.90;;;;;;5068038;28;20984;-71
2023/10/22 07:42:48;;;;;;;3.87;1.10;;;12.00;99.90;;;;;;5051563;28;20383;-70
2023/10/22 07:45:14;;;;;;;7.53;1.40;;;12.20;99.90;;;;;;5069819;28;20431;-70
2023/10/22 07:47:39;;;;;;;4.47;1.00;;;12.30;99.90;;;;;;5068282;28;20433;-72
2023/10/22 07:50:06;;;;;;;5.57;1.17;;;12.50;99.90;;;;;;5069578;28;20460;-69
2023/10/22 07:52:32;;;;;;;1.30;0.80;;;12.70;99.90;;;;;;5069307;28;20185;-71
2023/10/22 07:54:58;;;;;;;1.83;0.97;;;12.80;99.90;;;;;;5067782;28;20429;-71
2023/10/22 07:57:27;;;;;;;3.43;0.93;;;12.90;99.90;;;;;;5069271;28;20444;-70
2023/10/22 07:59:54;;;;;;;1.93;0.90;;;13.00;99.90;;;;;;5069380;28;20428;-70
2023/10/22 08:02:20;;;;;;;3.53;0.90;;;13.20;99.90;;;;;;5067870;28;20449;-71
2023/10/22 08:04:46;;;;;;;2.80;1.00;;;13.40;99.90;;;;;;5068405;28;20801;-71
2023/10/22 08:07:11;;;;;;;7.30;0.93;;;13.60;99.90;;;;;;5069454;28;20195;-71
2023/10/22 08:09:37;;;;;;;3.27;0.80;;;13.80;99.90;;;;;;5069712;28;20178;-72
2023/10/22 08:12:03;;;;;;;3.77;0.70;;;13.90;99.90;;;;;;5069879;28;20429;-71
2023/10/22 08:14:28;;;;;;;1.60;0.80;;;14.10;99.90;;;;;;5068179;28;20725;-72
2023/10/22 08:16:54;;;;;;;3.03;0.80;;;14.20;99.90;;;;;;5069553;28;20211;-71
2023/10/22 08:19:20;;;;;;;3.90;0.90;;;14.40;99.90;;;;;;5067769;28;20183;-70
2023/10/22 08:21:45;;;;;;;4.60;0.90;;;14.40;99.90;;;;;;5069388;28;20425;-71
2023/10/22 08:24:11;;;;;;;4.10;0.90;;;14.50;99.90;;;;;;5069382;28;20692;-71
2023/10/22 08:26:38;;;;;;;1.77;0.70;;;14.80;99.90;;;;;;5069332;28;20275;-71
2023/10/22 08:29:03;;;;;;;4.20;1.20;;;14.90;99.90;;;;;;5069217;28;20175;-71
2023/10/22 08:31:29;;;;;;;2.03;0.90;;;15.10;99.90;;;;;;5069317;28;20406;-71
2023/10/22 08:33:55;;;;;;;5.90;1.07;;;15.30;98.50;;;;;;5069301;28;20203;-71
2023/10/22 08:36:20;;;;;;;6.80;1.37;;;15.60;99.20;;;;;;5068941;28;20504;-72
2023/10/22 08:38:47;;;;;;;5.40;1.40;;;15.90;97.30;;;;;;5067631;28;20180;-71
2023/10/22 08:41:25;;;;;;;5.17;1.23;;;16.40;96.60;;;;;;5067498;28;20200;-71
2023/10/22 08:43:51;;;;;;;4.67;1.10;;;16.60;95.60;;;;;;5050368;28;20465;-71
2023/10/22 08:46:17;;;;;;;7.03;1.07;;;16.80;95.20;;;;;;5068504;28;20697;-71
2023/10/22 08:48:44;;;;;;;5.17;1.17;;;17.50;94.80;;;;;;5068517;28;20184;-71
2023/10/22 08:51:10;;;;;;;5.07;1.27;;;18.40;91.30;;;;;;5068629;28;20434;-71
2023/10/22 08:53:36;;;;;;;4.63;1.20;;;18.80;90.40;;;;;;5066853;28;20788;-71
2023/10/22 08:56:02;;;;;;;5.20;0.90;;;19.60;86.90;;;;;;5068053;28;20432;-71
2023/10/22 08:58:28;;;;;;;4.27;1.00;;;19.80;85.20;;;;;;5068162;28;20861;-71
2023/10/22 09:00:54;;;;;;;5.90;1.00;;;20.00;81.00;;;;;;5066538;28;20430;-71
2023/10/22 09:03:21;;;;;;;5.13;0.77;;;20.90;80.10;;;;;;5068149;28;20694;-71
2023/10/22 09:05:47;;;;;;;3.37;1.00;;;21.30;75.10;;;;;;5066673;28;20269;-71
2023/10/22 09:08:14;;;;;;;3.43;0.80;;;21.50;72.80;;;;;;5068020;28;20591;-71
2023/10/22 09:10:39;;;;;;;8.90;1.10;;;22.30;70.60;;;;;;5067812;28;20415;-71
2023/10/22 09:13:16;;;;;;;6.70;1.30;;;23.60;68.70;;;;;;5067802;28;21259;-71
2023/10/22 09:15:44;;;;;;;4.23;1.20;;;23.60;66.50;;;;;;5067795;28;20823;-71
2023/10/22 09:18:11;;;;;;;2.33;0.90;;;24.00;62.90;;;;;;5067238;28;21018;-71
2023/10/22 09:20:39;;;;;;;3.33;1.10;;;24.50;63.10;;;;;;5067424;28;20813;-71
2023/10/22 09:23:14;;;;;;;3.83;1.33;;;24.60;60.10;;;;;;5067497;28;20457;-70
2023/10/22 09:25:41;;;;;;;3.80;1.07;;;24.80;57.40;;;;;;5066165;28;20803;-71
2023/10/22 09:28:16;;;;;;;4.90;1.50;;;24.50;57.40;;;;;;5065776;28;20549;-71
2023/10/22 09:30:42;;;;;;;3.17;1.07;;;24.90;55.70;;;;;;5065398;28;20960;-71
2023/10/22 09:33:10;;;;;;;8.30;1.33;;;24.40;56.60;;;;;;5067136;28;20421;-71
2023/10/22 09:35:36;;;;;;;5.53;1.30;;;24.30;55.10;;;;;;5065733;28;20882;-72
2023/10/22 09:38:02;;;;;;;2.90;0.83;;;24.80;55.50;;;;;;5048815;28;20850;-72
2023/10/22 09:40:32;;;;;;;3.93;0.97;;;24.50;54.40;;;;;;5066983;28;20461;-72
2023/10/22 09:43:05;;;;;;;2.07;0.83;;;24.80;54.70;;;;;;5067783;28;20419;-72
2023/10/22 09:45:31;;;;;;;4.30;1.13;;;25.00;52.70;;;;;;5068124;28;20833;-75
2023/10/22 09:48:04;;;;;;;3.47;1.10;;;24.20;53.10;;;;;;5067724;28;20439;-72
2023/10/22 09:50:30;;;;;;;3.00;1.30;;;24.10;53.20;;;;;;5067713;28;20425;-71
2023/10/22 09:52:58;;;;;;;1.40;0.70;;;22.60;53.00;;;;;;5067270;28;20533;-72
2023/10/22 09:55:23;;;;;;;6.57;1.63;;;23.30;53.10;;;;;;5064745;28;20419;-72
2023/10/22 09:57:49;;;;;;;2.13;0.80;;;22.60;53.70;;;;;;5065686;28;20874;-71
2023/10/22 10:00:17;;;;;;;2.07;1.00;;;23.00;54.40;;;;;;5065326;28;20593;-71
2023/10/22 10:02:43;;;;;;;3.90;0.90;;;23.60;56.70;;;;;;5067190;28;20445;-71
2023/10/22 10:05:12;;;;;;;5.07;1.10;;;24.40;54.10;;;;;;5067421;28;20498;-72
2023/10/22 10:07:41;;;;;;;4.33;0.70;;;24.30;51.50;;;;;;5067156;28;20445;-72
2023/10/22 10:10:07;;;;;;;3.00;0.80;;;24.40;52.80;;;;;;5065579;28;20427;-73
2023/10/22 10:12:36;;;;;;;3.33;0.80;;;24.00;54.10;;;;;;5065253;28;20419;-72
2023/10/22 10:15:01;;;;;;;1.10;0.70;;;24.00;51.60;;;;;;5067096;28;20430;-72
2023/10/22 10:17:27;;;;;;;3.03;0.80;;;24.40;51.00;;;;;;5067053;28;20442;-73
2023/10/22 10:20:30;;;;;;;5.93;1.00;;;24.30;51.30;;;;;;5067009;28;20272;-73
2023/10/22 10:23:10;;;;;;;3.30;0.90;;;24.20;50.60;;;;;;5067430;28;20200;-71
2023/10/22 10:25:41;;;;;;;2.47;0.70;;;22.60;51.50;;;;;;5067254;28;20478;-72
2023/10/22 10:28:09;;;;;;;5.03;0.87;;;23.00;52.30;;;;;;5067747;28;20437;-75
2023/10/22 10:30:35;;;;;;;1.47;0.50;;;23.80;53.80;;;;;;5065409;28;21064;-73
2023/10/22 10:33:01;;;;;;;2.80;0.60;;;24.20;51.60;;;;;;5066951;28;20414;-74
2023/10/22 10:35:28;;;;;;;5.60;0.70;;;23.60;49.80;;;;;;5065581;28;20426;-74
2023/10/22 10:38:17;;;;;;;1.33;0.60;;;23.00;51.00;;;;;;5067799;28;20532;-72
2023/10/22 10:40:48;;;;;;;1.40;0.77;;;23.00;54.90;;;;;;5051075;28;21263;-73
2023/10/22 10:43:14;;;;;;;1.30;0.80;;;23.50;54.30;;;;;;5069712;28;20513;-74
2023/10/22 10:46:18;;;;;;;1.20;0.60;;;23.60;52.30;;;;;;5069110;28;20440;-74
2023/10/22 10:48:50;;;;;;;2.03;0.70;;;23.00;50.10;;;;;;5068944;28;20445;-73
2023/10/22 10:51:24;;;;;;;4.60;0.50;;;23.20;53.50;;;;;;5070352;28;21045;-72
2023/10/22 10:54:04;;;;;;;2.20;0.90;;;23.60;53.80;;;;;;5070276;28;20423;-73
2023/10/22 10:56:50;;;;;;;1.80;0.73;;;23.40;50.90;;;;;;5070213;28;20512;-74
2023/10/22 10:59:36;;;;;;;2.40;0.83;;;23.40;53.40;;;;;;5070273;28;20472;-72
2023/10/22 11:02:07;;;;;;;3.03;0.77;;;22.80;52.00;;;;;;5070354;28;20993;-74
2023/10/22 11:04:36;;;;;;;7.83;1.03;;;21.90;52.70;;;;;;5068525;28;20487;-71
2023/10/22 11:07:03;;;;;;;2.77;0.90;;;21.80;54.70;;;;;;5070097;28;20443;-73
2023/10/22 11:09:31;;;;;;;3.63;0.90;;;22.20;55.20;;;;;;5070177;28;20791;-74
2023/10/22 11:11:58;;;;;;;1.57;1.00;;;21.80;53.50;;;;;;5070161;28;20413;-73
2023/10/22 11:14:25;;;;;;;1.33;0.50;;;21.20;54.80;;;;;;5070055;28;20731;-72
2023/10/22 11:16:56;;;;;;;7.40;0.70;;;20.70;55.90;;;;;;5069837;28;20488;-72
2023/10/22 11:19:23;;;;;;;4.13;1.40;;;20.10;55.70;;;;;;5069836;28;20416;-72
2023/10/22 11:21:49;;;;;;;3.53;1.10;;;20.30;57.90;;;;;;5069928;28;20421;-73
2023/10/22 11:24:15;;;;;;;1.87;0.90;;;20.30;58.00;;;;;;5068423;28;20830;-73
2023/10/22 11:26:40;;;;;;;4.57;0.70;;;20.40;58.30;;;;;;5069611;28;20528;-73
2023/10/22 11:29:06;;;;;;;5.03;1.07;;;20.40;58.70;;;;;;5069649;28;20918;-72
2023/10/22 11:31:32;;;;;;;4.03;0.90;;;20.40;58.20;;;;;;5069573;28;20203;-72
2023/10/22 11:34:15;;;;;;;1.83;0.87;;;20.20;59.70;;;;;;5069697;28;20424;-72
2023/10/22 11:36:41;;;;;;;2.13;0.80;;;20.20;59.20;;;;;;5069527;28;20209;-72
2023/10/22 11:39:21;;;;;;;2.30;0.73;;;20.20;60.20;;;;;;5051102;28;20426;-72
2023/10/22 11:41:56;;;;;;;3.30;0.90;;;19.80;60.90;;;;;;5069434;28;20179;-72
2023/10/22 11:44:35;;;;;;;2.70;0.80;;;19.70;72.10;;;;;;5067924;28;21402;-72
2023/10/22 11:47:02;;;;;;;3.43;1.00;;;19.70;67.50;;;;;;5069443;28;20433;-71
2023/10/22 11:49:28;;;;;;;1.90;0.70;;;19.60;71.90;;;;;;5069218;28;20428;-72
2023/10/22 11:51:54;;;;;;;1.53;0.70;;;19.30;69.50;;;;;;5067755;28;20536;-72
2023/10/22 11:54:37;;;;;;;4.30;0.70;;;19.30;73.60;;;;;;5067182;28;20422;-72
2023/10/22 11:57:03;;;;;;;2.13;0.90;;;18.90;67.70;;;;;;5068974;28;20473;-72
2023/10/22 11:59:29;;;;;;;2.97;0.73;;;18.90;71.80;;;;;;5068975;28;20448;-72
2023/10/22 12:01:55;;;;;;;3.47;0.83;;;18.90;69.30;;;;;;5069012;28;20202;-72
2023/10/22 12:04:21;;;;;;;3.70;0.80;;;18.60;66.30;;;;;;5067567;28;20985;-72
2023/10/22 12:06:46;;;;;;;3.57;0.90;;;18.60;68.50;;;;;;5067551;28;20470;-72
2023/10/22 12:09:12;;;;;;;2.47;0.63;;;18.50;71.70;;;;;;5068941;28;20179;-71
2023/10/22 12:11:37;;;;;;;2.20;0.80;;;18.50;75.50;;;;;;5068952;28;20187;-71
2023/10/22 12:14:03;;;;;;;3.33;1.17;;;18.70;69.60;;;;;;5068961;28;20189;-70
2023/10/22 12:16:29;;;;;;;4.07;0.77;;;18.70;70.90;;;;;;5067442;28;20294;-71
2023/10/22 12:18:54;;;;;;;5.07;1.33;;;18.80;69.00;;;;;;5067412;28;20199;-71
2023/10/22 12:21:20;;;;;;;1.93;0.80;;;18.80;73.90;;;;;;5069005;28;20193;-72
2023/10/22 12:23:45;;;;;;;3.43;0.67;;;18.50;66.70;;;;;;5067308;28;20203;-72
2023/10/22 12:26:11;;;;;;;4.23;1.00;;;18.80;73.50;;;;;;5068813;28;20188;-72
2023/10/22 12:28:36;;;;;;;4.40;1.13;;;19.20;69.50;;;;;;5068982;28;20944;-71
2023/10/22 12:31:05;;;;;;;3.93;1.00;;;19.30;66.30;;;;;;5066924;28;20187;-71
2023/10/22 12:33:31;;;;;;;3.63;0.80;;;19.60;68.00;;;;;;5068744;28;20278;-72
2023/10/22 12:35:56;;;;;;;1.40;0.80;;;19.40;66.00;;;;;;5050306;28;20519;-72
2023/10/22 12:38:22;;;;;;;1.97;0.60;;;19.40;78.50;;;;;;5068503;28;20183;-72
2023/10/22 12:40:48;;;;;;;5.47;1.07;;;19.20;68.50;;;;;;5066974;28;20642;-72
2023/10/22 12:43:14;;;;;;;3.93;1.30;;;19.20;65.90;;;;;;5068145;28;20205;-72
2023/10/22 12:45:40;;;;;;;3.17;0.90;;;19.30;66.60;;;;;;5068598;28;20423;-72
2023/10/22 12:48:05;;;;;;;4.20;1.00;;;19.10;64.30;;;;;;5068225;28;20233;-72